Time;durP1;ratioP1;P1;durP2;ratioP2;P2;SDS_P1;SDS_P2;PMS_P1;PMS_P2;Temp;Humidity;BMP_temperature;BMP_pressure;BME280_temperature;BME280_humidity;BME280_pressure;Samples;Min_cycle;Max_cycle;Signal;HPM_P1;HPM_P2
2023/04/24 00:01:07;;;;;;;6.65;1.73;;;;;;;;;;5011247;28;20604;-64
2023/04/24 00:03:32;;;;;;;1.90;1.20;;;;;;;;;;5012631;28;20049;-65
2023/04/24 00:05:58;;;;;;;3.03;1.40;;;;;;;;;;5012969;28;20099;-61
2023/04/24 00:08:24;;;;;;;5.30;1.40;;;;;;;;;;5013106;28;20026;-65
2023/04/24 00:10:49;;;;;;;5.28;1.60;;;;;;;;;;5013291;28;20023;-62
2023/04/24 00:13:14;;;;;;;2.75;1.60;;;;;;;;;;5013390;28;20026;-64
2023/04/24 00:15:39;;;;;;;3.05;1.55;;;;;;;;;;5013722;28;20510;-59
2023/04/24 00:18:05;;;;;;;2.58;1.55;;;;;;;;;;5013831;28;20025;-64
2023/04/24 00:20:32;;;;;;;3.47;1.48;;;;;;;;;;5015165;28;20032;-62
2023/04/24 00:22:57;;;;;;;5.85;1.77;;;;;;;;;;5015139;28;20424;-61
2023/04/24 00:25:22;;;;;;;2.72;1.40;;;;;;;;;;5013875;28;20104;-65
2023/04/24 00:27:47;;;;;;;4.75;1.70;;;;;;;;;;5012637;28;20025;-63
2023/04/24 00:30:13;;;;;;;3.85;1.70;;;;;;;;;;5013390;28;20025;-64
2023/04/24 00:32:38;;;;;;;6.57;1.70;;;;;;;;;;5012133;28;20014;-65
2023/04/24 00:35:04;;;;;;;2.10;1.40;;;;;;;;;;5019626;28;20112;-64
2023/04/24 00:37:29;;;;;;;2.97;1.63;;;;;;;;;;5024888;28;20025;-60
2023/04/24 00:39:55;;;;;;;2.40;1.40;;;;;;;;;;5013073;28;20475;-65
2023/04/24 00:42:20;;;;;;;2.63;1.42;;;;;;;;;;5022431;28;20500;-64
2023/04/24 00:44:45;;;;;;;6.85;1.70;;;;;;;;;;5012419;28;20056;-64
2023/04/24 00:47:11;;;;;;;3.28;1.63;;;;;;;;;;5012079;28;20033;-62
2023/04/24 00:49:37;;;;;;;10.18;1.90;;;;;;;;;;5012454;28;20045;-63
2023/04/24 00:52:07;;;;;;;3.97;1.60;;;;;;;;;;5013159;28;20617;-65
2023/04/24 00:54:32;;;;;;;3.30;1.90;;;;;;;;;;5013125;28;20076;-64
2023/04/24 00:56:57;;;;;;;3.35;1.90;;;;;;;;;;5013871;28;20049;-63
2023/04/24 00:59:22;;;;;;;3.10;1.60;;;;;;;;;;5013915;28;20152;-65
2023/04/24 01:01:48;;;;;;;6.50;2.38;;;;;;;;;;5012997;28;20083;-64
2023/04/24 01:04:14;;;;;;;2.60;1.42;;;;;;;;;;5012529;28;20034;-65
2023/04/24 01:06:39;;;;;;;7.38;1.80;;;;;;;;;;5012186;28;20026;-63
2023/04/24 01:09:05;;;;;;;2.28;1.40;;;;;;;;;;5013039;28;20014;-65
2023/04/24 01:11:30;;;;;;;2.33;1.20;;;;;;;;;;5012353;28;20053;-63
2023/04/24 01:13:56;;;;;;;4.57;1.73;;;;;;;;;;5013516;28;20093;-58
2023/04/24 01:16:21;;;;;;;2.92;1.35;;;;;;;;;;5012777;28;20438;-65
2023/04/24 01:18:47;;;;;;;2.65;1.30;;;;;;;;;;5012793;28;20053;-64
2023/04/24 01:21:18;;;;;;;1.35;1.00;;;;;;;;;;5013329;28;20029;-65
2023/04/24 01:23:44;;;;;;;2.35;1.00;;;;;;;;;;5012696;28;20507;-63
2023/04/24 01:26:09;;;;;;;1.20;0.95;;;;;;;;;;5012348;28;20114;-64
2023/04/24 01:28:34;;;;;;;2.15;1.00;;;;;;;;;;5012720;28;20480;-65
2023/04/24 01:31:00;;;;;;;2.35;1.35;;;;;;;;;;5015270;28;20040;-64
2023/04/24 01:33:25;;;;;;;1.63;1.02;;;;;;;;;;5012879;28;20029;-64
2023/04/24 01:35:50;;;;;;;3.38;1.10;;;;;;;;;;5017346;28;20021;-65
2023/04/24 01:38:16;;;;;;;2.20;0.98;;;;;;;;;;5014757;28;20116;-61
2023/04/24 01:40:41;;;;;;;3.67;1.30;;;;;;;;;;5013112;28;20022;-64
2023/04/24 01:43:06;;;;;;;1.73;0.90;;;;;;;;;;5020952;28;20018;-64
2023/04/24 01:45:31;;;;;;;2.90;1.05;;;;;;;;;;5011654;28;20030;-65
2023/04/24 01:47:57;;;;;;;2.15;1.20;;;;;;;;;;5012024;28;20114;-63
2023/04/24 01:50:22;;;;;;;1.95;0.90;;;;;;;;;;5011046;28;20526;-64
2023/04/24 01:52:47;;;;;;;7.90;1.40;;;;;;;;;;5012425;28;20021;-62
2023/04/24 01:55:13;;;;;;;2.70;1.10;;;;;;;;;;5012337;28;20053;-64
2023/04/24 01:57:38;;;;;;;1.05;0.90;;;;;;;;;;5013218;28;20022;-65
2023/04/24 02:00:04;;;;;;;1.30;0.93;;;;;;;;;;5011429;28;20065;-64
2023/04/24 02:02:29;;;;;;;5.90;1.15;;;;;;;;;;5009676;28;20022;-66
2023/04/24 02:04:55;;;;;;;2.47;1.10;;;;;;;;;;5009990;28;20550;-61
2023/04/24 02:07:20;;;;;;;8.27;1.75;;;;;;;;;;5010804;28;20076;-64
2023/04/24 02:09:45;;;;;;;2.78;1.10;;;;;;;;;;5010389;28;20025;-63
2023/04/24 02:12:11;;;;;;;1.55;1.00;;;;;;;;;;5011703;28;20637;-63
2023/04/24 02:14:36;;;;;;;2.25;1.10;;;;;;;;;;5010630;28;20045;-62
2023/04/24 02:17:01;;;;;;;1.13;0.90;;;;;;;;;;5011143;28;20014;-62
2023/04/24 02:19:26;;;;;;;2.28;1.00;;;;;;;;;;5011022;28;20050;-63
2023/04/24 02:21:52;;;;;;;1.65;1.02;;;;;;;;;;5010147;28;20025;-63
2023/04/24 02:24:17;;;;;;;3.60;1.20;;;;;;;;;;5010594;28;20025;-64
2023/04/24 02:26:42;;;;;;;1.95;1.20;;;;;;;;;;5010790;28;20048;-65
2023/04/24 02:29:07;;;;;;;3.10;1.40;;;;;;;;;;5011060;28;20036;-64
2023/04/24 02:31:33;;;;;;;3.33;1.52;;;;;;;;;;5010581;28;20022;-62
2023/04/24 02:33:58;;;;;;;5.13;1.38;;;;;;;;;;5012538;28;20045;-64
2023/04/24 02:36:24;;;;;;;2.40;1.30;;;;;;;;;;5014186;28;20030;-62
2023/04/24 02:38:49;;;;;;;4.47;1.70;;;;;;;;;;5009484;28;20028;-65
2023/04/24 02:41:14;;;;;;;3.00;1.50;;;;;;;;;;5018027;28;20029;-61
2023/04/24 02:43:40;;;;;;;3.25;1.38;;;;;;;;;;5017082;28;20037;-65
2023/04/24 02:46:05;;;;;;;2.47;1.35;;;;;;;;;;5013525;28;20119;-62
2023/04/24 02:48:30;;;;;;;3.10;1.42;;;;;;;;;;5011452;28;20098;-65
2023/04/24 02:50:55;;;;;;;2.42;1.23;;;;;;;;;;5010555;28;20017;-66
2023/04/24 02:53:21;;;;;;;2.72;1.38;;;;;;;;;;5011051;28;20018;-64
2023/04/24 02:55:46;;;;;;;2.28;1.30;;;;;;;;;;5011579;28;20096;-66
2023/04/24 02:58:12;;;;;;;3.58;1.40;;;;;;;;;;5008432;28;20492;-65
2023/04/24 03:00:38;;;;;;;4.57;1.60;;;;;;;;;;5011207;28;20026;-63
2023/04/24 03:03:03;;;;;;;2.58;1.40;;;;;;;;;;5011315;28;20093;-62
2023/04/24 03:05:30;;;;;;;1.60;1.20;;;;;;;;;;5010524;28;20657;-64
2023/04/24 03:07:55;;;;;;;2.67;1.67;;;;;;;;;;5011551;28;20364;-64
2023/04/24 03:10:22;;;;;;;1.85;1.30;;;;;;;;;;5011906;28;20032;-65
2023/04/24 03:12:47;;;;;;;6.40;1.70;;;;;;;;;;5011960;28;20014;-65
2023/04/24 03:15:12;;;;;;;4.75;1.67;;;;;;;;;;5010948;28;20044;-65
2023/04/24 03:17:38;;;;;;;2.70;1.30;;;;;;;;;;5011408;28;20522;-66
2023/04/24 03:20:05;;;;;;;2.53;1.30;;;;;;;;;;5011833;28;20048;-63
2023/04/24 03:22:32;;;;;;;2.15;1.30;;;;;;;;;;5010842;28;20022;-64
2023/04/24 03:24:57;;;;;;;3.13;1.27;;;;;;;;;;5010780;28;20387;-64
2023/04/24 03:27:22;;;;;;;4.28;1.35;;;;;;;;;;5011785;28;20026;-64
2023/04/24 03:29:48;;;;;;;2.13;1.30;;;;;;;;;;5011245;28;20018;-64
2023/04/24 03:32:13;;;;;;;8.88;1.50;;;;;;;;;;5010715;28;20029;-61
2023/04/24 03:34:38;;;;;;;1.70;1.20;;;;;;;;;;5013365;28;20103;-64
2023/04/24 03:37:03;;;;;;;2.30;1.20;;;;;;;;;;5020976;28;20030;-63
2023/04/24 03:39:28;;;;;;;3.85;1.60;;;;;;;;;;5009687;28;20025;-63
2023/04/24 03:41:54;;;;;;;1.88;1.40;;;;;;;;;;5019835;28;20364;-62
2023/04/24 03:44:19;;;;;;;3.00;1.42;;;;;;;;;;5010026;28;20107;-65
2023/04/24 03:46:44;;;;;;;3.17;1.30;;;;;;;;;;5011654;28;20107;-64
2023/04/24 03:49:09;;;;;;;2.75;1.33;;;;;;;;;;5013531;28;20492;-65
2023/04/24 03:51:35;;;;;;;2.42;1.40;;;;;;;;;;5012471;28;20026;-65
2023/04/24 03:54:00;;;;;;;2.70;1.38;;;;;;;;;;5012610;28;20021;-62
2023/04/24 03:56:25;;;;;;;2.25;1.33;;;;;;;;;;5012000;28;20502;-66
2023/04/24 03:58:50;;;;;;;2.42;1.40;;;;;;;;;;5012755;28;20356;-63
2023/04/24 04:01:16;;;;;;;2.22;1.20;;;;;;;;;;5015488;28;20537;-64
2023/04/24 04:03:41;;;;;;;7.20;1.40;;;;;;;;;;5013987;28;20020;-62
2023/04/24 04:06:06;;;;;;;3.40;1.50;;;;;;;;;;5014155;28;20025;-66
2023/04/24 04:08:32;;;;;;;2.47;1.25;;;;;;;;;;5013847;28;20038;-64
2023/04/24 04:10:57;;;;;;;2.70;1.15;;;;;;;;;;5014445;28;20097;-65
2023/04/24 04:13:22;;;;;;;3.22;1.55;;;;;;;;;;5014339;28;20223;-64
2023/04/24 04:15:47;;;;;;;1.83;1.20;;;;;;;;;;5016610;28;20057;-64
2023/04/24 04:18:12;;;;;;;3.72;1.98;;;;;;;;;;5015003;28;20030;-64
2023/04/24 04:20:38;;;;;;;2.85;1.33;;;;;;;;;;5012407;28;20026;-64
2023/04/24 04:23:03;;;;;;;3.40;1.30;;;;;;;;;;5006217;28;20026;-65
2023/04/24 04:25:28;;;;;;;7.05;1.70;;;;;;;;;;5014339;28;20033;-61
2023/04/24 04:27:54;;;;;;;3.38;1.20;;;;;;;;;;5013709;28;20025;-65
2023/04/24 04:30:20;;;;;;;2.80;1.30;;;;;;;;;;5011430;28;20018;-66
2023/04/24 04:32:46;;;;;;;6.00;1.30;;;;;;;;;;5028980;28;20105;-66
2023/04/24 04:35:11;;;;;;;2.67;1.45;;;;;;;;;;5014595;28;20128;-64
2023/04/24 04:37:36;;;;;;;2.13;1.30;;;;;;;;;;5013854;28;20029;-65
2023/04/24 04:40:06;;;;;;;3.80;1.23;;;;;;;;;;5012694;28;20029;-66
2023/04/24 04:42:32;;;;;;;2.15;1.35;;;;;;;;;;5019108;28;20037;-66
2023/04/24 04:44:57;;;;;;;6.18;1.67;;;;;;;;;;5011038;28;20085;-65
2023/04/24 04:47:23;;;;;;;3.95;1.50;;;;;;;;;;5012145;28;20112;-65
2023/04/24 04:49:48;;;;;;;5.90;1.20;;;;;;;;;;5012498;28;20340;-62
2023/04/24 04:52:13;;;;;;;3.72;1.50;;;;;;;;;;5011836;28;20476;-65
2023/04/24 04:54:39;;;;;;;8.75;1.77;;;;;;;;;;5011797;28;20030;-65
2023/04/24 04:57:04;;;;;;;5.40;1.63;;;;;;;;;;5012438;28;20049;-64
2023/04/24 04:59:30;;;;;;;7.35;1.55;;;;;;;;;;5011546;28;20399;-62
2023/04/24 05:01:55;;;;;;;2.53;1.45;;;;;;;;;;5011765;28;20590;-65
2023/04/24 05:04:20;;;;;;;5.15;1.48;;;;;;;;;;5014773;28;20045;-58
2023/04/24 05:06:47;;;;;;;10.25;1.73;;;;;;;;;;5012048;28;20033;-65
2023/04/24 05:09:12;;;;;;;6.18;1.30;;;;;;;;;;5026502;28;20021;-64
2023/04/24 05:11:37;;;;;;;4.13;1.50;;;;;;;;;;5011379;28;20036;-61
2023/04/24 05:14:02;;;;;;;5.38;1.20;;;;;;;;;;5011489;28;20093;-65
2023/04/24 05:16:27;;;;;;;2.45;1.35;;;;;;;;;;5011854;28;20046;-63
2023/04/24 05:18:53;;;;;;;3.45;1.30;;;;;;;;;;5010123;28;20483;-65
2023/04/24 05:21:18;;;;;;;5.03;1.88;;;;;;;;;;5011092;28;20088;-65
2023/04/24 05:23:43;;;;;;;2.08;1.10;;;;;;;;;;5011935;28;20025;-64
2023/04/24 05:26:09;;;;;;;8.70;1.67;;;;;;;;;;5010484;28;20367;-62
2023/04/24 05:28:36;;;;;;;2.17;1.10;;;;;;;;;;5010653;28;20022;-65
2023/04/24 05:31:02;;;;;;;3.47;1.40;;;;;;;;;;5009420;28;20034;-65
2023/04/24 05:33:27;;;;;;;2.13;1.20;;;;;;;;;;5006594;28;20074;-65
2023/04/24 05:35:52;;;;;;;3.10;1.30;;;;;;;;;;5022436;28;20090;-66
2023/04/24 05:38:19;;;;;;;3.38;1.48;;;;;;;;;;5011039;28;20049;-65
2023/04/24 05:40:44;;;;;;;4.30;1.30;;;;;;;;;;5013304;28;20014;-64
2023/04/24 05:43:09;;;;;;;4.40;1.60;;;;;;;;;;5012728;28;20033;-65
2023/04/24 05:45:35;;;;;;;8.07;1.50;;;;;;;;;;5010353;28;20600;-64
2023/04/24 05:48:01;;;;;;;3.83;1.70;;;;;;;;;;5010615;28;20025;-64
2023/04/24 05:50:26;;;;;;;6.13;1.60;;;;;;;;;;5037494;22;20139;-69
2023/04/24 05:52:52;;;;;;;2.17;1.20;;;;;;;;;;5029864;28;20074;-68
2023/04/24 05:55:17;;;;;;;3.25;1.40;;;;;;;;;;5030271;28;20024;-70
2023/04/24 05:57:42;;;;;;;6.88;1.55;;;;;;;;;;5030484;28;20102;-68
2023/04/24 06:00:08;;;;;;;3.42;1.45;;;;;;;;;;5028253;28;20092;-68
2023/04/24 06:02:33;;;;;;;2.33;1.25;;;;;;;;;;5030070;28;20144;-68
2023/04/24 06:04:59;;;;;;;2.58;1.23;;;;;;;;;;5029417;28;20037;-70
2023/04/24 06:07:26;;;;;;;1.58;0.90;;;;;;;;;;5027976;28;20463;-67
2023/04/24 06:09:51;;;;;;;2.17;1.23;;;;;;;;;;5030332;28;20483;-69
2023/04/24 06:12:17;;;;;;;2.33;1.30;;;;;;;;;;5018198;28;20029;-68
2023/04/24 06:14:42;;;;;;;2.38;1.20;;;;;;;;;;5029933;28;20647;-67
2023/04/24 06:17:07;;;;;;;2.92;1.08;;;;;;;;;;5030434;28;20087;-68
2023/04/24 06:19:33;;;;;;;3.58;1.30;;;;;;;;;;5030421;28;20101;-70
2023/04/24 06:21:58;;;;;;;1.50;1.17;;;;;;;;;;5029911;28;20435;-70
2023/04/24 06:24:26;;;;;;;4.13;1.83;;;;;;;;;;5030079;28;20070;-68
2023/04/24 06:26:52;;;;;;;7.65;1.73;;;;;;;;;;5016053;28;20034;-67
2023/04/24 06:29:17;;;;;;;2.47;1.20;;;;;;;;;;5029454;28;20079;-68
2023/04/24 06:31:42;;;;;;;1.67;1.17;;;;;;;;;;5028790;28;20093;-69
2023/04/24 06:34:07;;;;;;;9.35;1.70;;;;;;;;;;5028896;28;20025;-69
2023/04/24 06:36:35;;;;;;;5.53;1.23;;;;;;;;;;5027512;28;20072;-69
2023/04/24 06:39:00;;;;;;;6.00;1.58;;;;;;;;;;5023088;28;20018;-68
2023/04/24 06:41:26;;;;;;;3.53;1.33;;;;;;;;;;5019872;28;20030;-69
2023/04/24 06:43:51;;;;;;;4.88;1.70;;;;;;;;;;5022521;28;20022;-68
2023/04/24 06:46:16;;;;;;;1.98;1.27;;;;;;;;;;5022128;28;20030;-68
2023/04/24 06:48:42;;;;;;;4.15;1.30;;;;;;;;;;5018031;28;20499;-68
2023/04/24 06:51:07;;;;;;;3.35;1.10;;;;;;;;;;5027273;28;20021;-68
2023/04/24 06:53:33;;;;;;;2.20;1.08;;;;;;;;;;5027562;28;20053;-68
2023/04/24 06:55:58;;;;;;;4.20;1.45;;;;;;;;;;5022334;28;20490;-69
2023/04/24 06:58:24;;;;;;;2.28;1.25;;;;;;;;;;5022137;28;20053;-69
2023/04/24 07:00:50;;;;;;;4.00;1.20;;;;;;;;;;5027379;28;20475;-68
2023/04/24 07:03:15;;;;;;;4.35;1.48;;;;;;;;;;5026804;28;20029;-71
2023/04/24 07:05:41;;;;;;;3.40;1.35;;;;;;;;;;5024273;28;20033;-68
2023/04/24 07:08:06;;;;;;;4.97;1.33;;;;;;;;;;5025095;28;20030;-70
2023/04/24 07:10:35;;;;;;;2.50;1.30;;;;;;;;;;5027695;28;20014;-68
2023/04/24 07:13:01;;;;;;;2.05;1.15;;;;;;;;;;5027803;28;20020;-70
2023/04/24 07:15:26;;;;;;;6.35;1.38;;;;;;;;;;5027546;28;20026;-67
2023/04/24 07:17:51;;;;;;;5.63;1.55;;;;;;;;;;5028266;28;20080;-68
2023/04/24 07:20:16;;;;;;;7.07;1.20;;;;;;;;;;5028276;28;20045;-68
2023/04/24 07:22:43;;;;;;;3.95;1.23;;;;;;;;;;5028144;28;20056;-65
2023/04/24 07:25:08;;;;;;;3.78;1.20;;;;;;;;;;5028129;28;20067;-67
2023/04/24 07:27:35;;;;;;;3.70;1.30;;;;;;;;;;5027457;28;20057;-68
2023/04/24 07:30:00;;;;;;;3.97;1.23;;;;;;;;;;5021107;28;20017;-67
2023/04/24 07:32:26;;;;;;;9.65;1.15;;;;;;;;;;5024885;28;20419;-70
2023/04/24 07:34:51;;;;;;;4.65;1.00;;;;;;;;;;5027126;28;20093;-69
2023/04/24 07:37:16;;;;;;;5.80;1.20;;;;;;;;;;5030415;28;20086;-69
2023/04/24 07:39:42;;;;;;;5.70;1.42;;;;;;;;;;5031842;28;20163;-68
2023/04/24 07:42:07;;;;;;;3.53;1.10;;;;;;;;;;5031731;28;20037;-69
2023/04/24 07:44:32;;;;;;;3.28;1.30;;;;;;;;;;5030554;28;20040;-68
2023/04/24 07:46:57;;;;;;;5.22;1.10;;;;;;;;;;5031503;28;20156;-68
2023/04/24 07:49:23;;;;;;;3.53;1.20;;;;;;;;;;4991459;28;1104760;-69
2023/04/24 07:51:49;;;;;;;2.28;0.90;;;;;;;;;;5023070;28;20033;-68
2023/04/24 07:54:14;;;;;;;2.03;0.90;;;;;;;;;;5031812;28;20017;-69
2023/04/24 07:56:41;;;;;;;4.93;0.80;;;;;;;;;;5032553;28;20032;-69
2023/04/24 07:59:07;;;;;;;4.22;1.00;;;;;;;;;;5031900;28;20025;-70
2023/04/24 08:01:32;;;;;;;2.45;0.80;;;;;;;;;;5032212;28;20043;-68
2023/04/24 08:03:57;;;;;;;0.95;0.70;;;;;;;;;;5031851;28;20045;-69
2023/04/24 08:06:23;;;;;;;4.82;1.10;;;;;;;;;;5032166;28;20033;-69
2023/04/24 08:08:48;;;;;;;1.73;0.88;;;;;;;;;;5031713;28;20022;-67
2023/04/24 08:11:13;;;;;;;1.52;0.60;;;;;;;;;;5032847;28;20044;-68
2023/04/24 08:13:38;;;;;;;2.25;0.82;;;;;;;;;;5032639;28;20026;-69
2023/04/24 08:16:03;;;;;;;2.58;0.82;;;;;;;;;;5032023;28;20041;-68
2023/04/24 08:18:29;;;;;;;4.57;1.05;;;;;;;;;;5032266;28;20471;-69
2023/04/24 08:20:54;;;;;;;4.22;1.02;;;;;;;;;;5032830;28;20032;-67
2023/04/24 08:23:19;;;;;;;2.17;0.80;;;;;;;;;;5032148;28;20034;-68
2023/04/24 08:25:45;;;;;;;2.90;0.90;;;;;;;;;;5032054;28;20025;-69
2023/04/24 08:28:10;;;;;;;0.52;0.50;;;;;;;;;;5032173;28;20497;-68
2023/04/24 08:30:36;;;;;;;2.92;0.93;;;;;;;;;;5030522;28;20022;-67
2023/04/24 08:33:01;;;;;;;1.95;0.75;;;;;;;;;;5031760;28;20534;-69
2023/04/24 08:35:27;;;;;;;2.15;0.85;;;;;;;;;;5031080;28;20025;-68
2023/04/24 08:37:53;;;;;;;3.10;0.55;;;;;;;;;;5033484;28;20030;-69
2023/04/24 08:40:21;;;;;;;1.98;1.02;;;;;;;;;;5031482;28;20021;-68
2023/04/24 08:42:46;;;;;;;2.05;0.98;;;;;;;;;;5031502;28;20029;-69
2023/04/24 08:45:12;;;;;;;2.53;0.93;;;;;;;;;;5029567;28;20021;-67
2023/04/24 08:47:38;;;;;;;4.53;0.80;;;;;;;;;;5031030;28;20108;-70
2023/04/24 08:50:05;;;;;;;2.40;1.05;;;;;;;;;;5030956;28;20032;-69
2023/04/24 08:52:32;;;;;;;1.60;0.57;;;;;;;;;;5031100;28;20010;-68
2023/04/24 08:54:57;;;;;;;1.80;0.90;;;;;;;;;;5031160;28;20018;-68
2023/04/24 08:57:22;;;;;;;2.00;0.93;;;;;;;;;;5031478;28;20054;-69
2023/04/24 08:59:48;;;;;;;1.30;0.65;;;;;;;;;;5030203;28;20056;-68
2023/04/24 09:02:13;;;;;;;2.22;0.70;;;;;;;;;;5030722;28;20467;-68
2023/04/24 09:04:40;;;;;;;1.27;0.70;;;;;;;;;;5030132;28;20437;-68
2023/04/24 09:07:06;;;;;;;3.28;0.63;;;;;;;;;;5033256;28;20578;-68
2023/04/24 09:09:32;;;;;;;0.73;0.65;;;;;;;;;;5029818;28;20063;-67
2023/04/24 09:11:58;;;;;;;1.85;0.80;;;;;;;;;;5030513;28;20037;-69
2023/04/24 09:14:23;;;;;;;1.45;0.80;;;;;;;;;;5030523;28;20083;-69
2023/04/24 09:16:49;;;;;;;1.42;0.70;;;;;;;;;;5030861;28;20475;-69
2023/04/24 09:19:14;;;;;;;3.97;1.00;;;;;;;;;;5030792;28;20548;-69
2023/04/24 09:21:41;;;;;;;1.33;0.73;;;;;;;;;;5028502;28;20041;-68
2023/04/24 09:24:08;;;;;;;1.13;0.73;;;;;;;;;;5030403;28;20030;-69
2023/04/24 09:26:35;;;;;;;1.80;0.80;;;;;;;;;;5031147;28;20029;-69
2023/04/24 09:29:01;;;;;;;1.75;0.80;;;;;;;;;;5030981;28;20084;-68
2023/04/24 09:31:29;;;;;;;2.63;0.60;;;;;;;;;;5031086;28;20463;-69
2023/04/24 09:33:55;;;;;;;0.77;0.60;;;;;;;;;;5029828;28;20013;-68
2023/04/24 09:36:26;;;;;;;1.48;0.80;;;;;;;;;;5029078;28;20028;-68
2023/04/24 09:38:53;;;;;;;1.55;0.68;;;;;;;;;;5029993;28;20028;-67
2023/04/24 09:41:18;;;;;;;1.15;0.70;;;;;;;;;;5030399;28;20028;-67
2023/04/24 09:43:44;;;;;;;2.35;0.90;;;;;;;;;;5029813;28;20021;-69
2023/04/24 09:46:09;;;;;;;1.75;0.80;;;;;;;;;;5030046;28;20018;-68
2023/04/24 09:48:37;;;;;;;3.50;0.88;;;;;;;;;;5029566;28;20022;-69
2023/04/24 09:51:04;;;;;;;2.17;0.65;;;;;;;;;;5029927;28;20095;-66
2023/04/24 09:53:30;;;;;;;0.90;0.60;;;;;;;;;;5029451;28;20041;-68
2023/04/24 09:55:55;;;;;;;6.82;0.80;;;;;;;;;;5029758;28;20005;-68
2023/04/24 09:58:26;;;;;;;1.77;0.75;;;;;;;;;;5030077;28;20030;-69
2023/04/24 10:00:55;;;;;;;1.30;0.70;;;;;;;;;;5029901;28;20021;-68
2023/04/24 10:03:20;;;;;;;1.50;0.80;;;;;;;;;;5029721;28;20025;-68
2023/04/24 10:05:46;;;;;;;2.03;0.60;;;;;;;;;;5029814;28;20040;-68
2023/04/24 10:08:12;;;;;;;2.67;0.85;;;;;;;;;;5029351;28;20026;-69
2023/04/24 10:10:43;;;;;;;2.20;0.80;;;;;;;;;;5029929;28;20025;-66
2023/04/24 10:13:10;;;;;;;6.22;0.70;;;;;;;;;;5029783;28;20021;-68
2023/04/24 10:15:35;;;;;;;6.25;0.80;;;;;;;;;;5029206;28;20067;-69
2023/04/24 10:18:00;;;;;;;1.63;0.70;;;;;;;;;;5029720;28;20092;-67
2023/04/24 10:20:27;;;;;;;0.68;0.60;;;;;;;;;;5029332;28;20067;-67
2023/04/24 10:22:53;;;;;;;1.77;0.98;;;;;;;;;;5029815;28;20020;-70
2023/04/24 10:25:22;;;;;;;3.92;1.00;;;;;;;;;;5028425;28;20017;-70
2023/04/24 10:27:48;;;;;;;8.80;1.02;;;;;;;;;;5029293;28;20031;-68
2023/04/24 10:30:14;;;;;;;1.60;0.73;;;;;;;;;;5028298;28;20104;-68
2023/04/24 10:32:39;;;;;;;6.47;1.05;;;;;;;;;;5029160;28;20083;-67
2023/04/24 10:35:08;;;;;;;0.80;0.50;;;;;;;;;;5028921;28;20438;-68
2023/04/24 10:37:33;;;;;;;;;;;;;;;;;;5029307;28;20378;-69
2023/04/24 10:40:00;;;;;;;7.85;1.02;;;;;;;;;;5028967;28;20402;-67
2023/04/24 10:42:26;;;;;;;2.30;0.68;;;;;;;;;;5028849;28;20048;-69
2023/04/24 10:44:52;;;;;;;1.73;0.90;;;;;;;;;;5021879;28;20018;-67
2023/04/24 10:47:17;;;;;;;0.90;0.70;;;;;;;;;;5029693;28;20029;-68
2023/04/24 10:49:43;;;;;;;3.15;0.80;;;;;;;;;;5028971;28;20455;-68
2023/04/24 10:52:08;;;;;;;2.20;0.90;;;;;;;;;;5029192;28;20452;-68
2023/04/24 10:54:35;;;;;;;0.88;0.70;;;;;;;;;;5027352;28;20447;-68
2023/04/24 10:57:22;;;;;;;1.52;0.80;;;;;;;;;;5029207;28;20022;-69
2023/04/24 10:59:48;;;;;;;1.35;0.98;;;;;;;;;;5028574;28;20620;-69
2023/04/24 11:02:17;;;;;;;1.02;0.70;;;;;;;;;;5028946;28;20590;-68
2023/04/24 11:04:43;;;;;;;0.90;0.80;;;;;;;;;;5028411;28;20029;-69
2023/04/24 11:07:08;;;;;;;1.30;0.88;;;;;;;;;;5029043;28;20113;-67
2023/04/24 11:09:36;;;;;;;0.95;0.77;;;;;;;;;;5031165;28;20025;-68
2023/04/24 11:12:11;;;;;;;0.82;0.68;;;;;;;;;;5033553;28;20017;-66
2023/04/24 11:14:55;;;;;;;5.85;1.77;;;;;;;;;;5032485;28;20026;-68
2023/04/24 11:17:33;;;;;;;7.32;1.13;;;;;;;;;;5033047;28;20379;-69
2023/04/24 11:20:12;;;;;;;2.63;0.82;;;;;;;;;;5025854;28;20018;-68
2023/04/24 11:22:39;;;;;;;2.03;0.80;;;;;;;;;;5033093;28;20030;-70
2023/04/24 11:25:05;;;;;;;3.45;0.90;;;;;;;;;;5032619;28;20414;-67
2023/04/24 11:27:32;;;;;;;6.25;1.00;;;;;;;;;;5032991;28;20018;-69
2023/04/24 11:29:58;;;;;;;1.63;1.00;;;;;;;;;;5032895;28;20041;-69
2023/04/24 11:32:32;;;;;;;0.93;0.70;;;;;;;;;;5031664;28;20513;-69
2023/04/24 11:34:58;;;;;;;2.90;1.10;;;;;;;;;;5032283;28;20032;-68
2023/04/24 11:37:25;;;;;;;3.05;1.00;;;;;;;;;;5035946;28;20017;-68
2023/04/24 11:39:52;;;;;;;0.95;0.70;;;;;;;;;;5032201;28;20014;-69
2023/04/24 11:42:18;;;;;;;1.38;0.80;;;;;;;;;;5031946;28;20029;-69
2023/04/24 11:44:43;;;;;;;2.63;1.23;;;;;;;;;;5031896;28;20463;-67
2023/04/24 11:47:08;;;;;;;2.60;0.80;;;;;;;;;;5032176;28;20062;-67
2023/04/24 11:49:36;;;;;;;0.80;0.70;;;;;;;;;;5033339;28;20072;-68
2023/04/24 11:52:01;;;;;;;2.05;0.90;;;;;;;;;;5032290;28;20112;-69
2023/04/24 11:54:26;;;;;;;1.10;0.88;;;;;;;;;;5032001;28;20113;-67
2023/04/24 11:56:51;;;;;;;2.75;1.38;;;;;;;;;;5031826;28;20045;-70
2023/04/24 11:59:17;;;;;;;3.17;0.93;;;;;;;;;;5031494;28;20078;-68
2023/04/24 12:01:43;;;;;;;1.90;0.82;;;;;;;;;;5032482;28;20063;-69
2023/04/24 12:04:08;;;;;;;1.58;0.80;;;;;;;;;;5031712;28;20026;-69
2023/04/24 12:06:33;;;;;;;7.45;1.00;;;;;;;;;;5031289;28;20692;-67
2023/04/24 12:08:59;;;;;;;4.72;0.90;;;;;;;;;;5031593;28;20018;-65
2023/04/24 12:11:25;;;;;;;1.98;0.75;;;;;;;;;;5032208;28;20022;-65
2023/04/24 12:13:50;;;;;;;3.00;0.80;;;;;;;;;;5031524;28;20479;-68
2023/04/24 12:16:16;;;;;;;1.67;0.95;;;;;;;;;;5031618;28;20103;-68
2023/04/24 12:18:45;;;;;;;3.63;1.08;;;;;;;;;;5031624;28;20080;-68
2023/04/24 12:21:17;;;;;;;3.55;1.02;;;;;;;;;;5031211;28;20021;-67
2023/04/24 12:23:43;;;;;;;3.05;1.02;;;;;;;;;;5031444;28;20025;-69
2023/04/24 12:26:08;;;;;;;2.90;1.15;;;;;;;;;;5031710;28;20017;-68
2023/04/24 12:28:35;;;;;;;1.45;0.90;;;;;;;;;;5031908;28;20025;-68
2023/04/24 12:31:00;;;;;;;1.25;0.80;;;;;;;;;;5031559;28;20020;-68
2023/04/24 12:33:26;;;;;;;3.60;1.15;;;;;;;;;;5031313;28;20013;-68
2023/04/24 12:35:53;;;;;;;2.65;1.00;;;;;;;;;;5031519;28;20071;-69
2023/04/24 12:38:21;;;;;;;1.33;0.80;;;;;;;;;;5031530;28;20423;-69
2023/04/24 12:40:46;;;;;;;2.75;1.27;;;;;;;;;;5031378;28;20083;-67
2023/04/24 12:43:15;;;;;;;1.30;0.80;;;;;;;;;;5031554;28;20029;-68
2023/04/24 12:45:40;;;;;;;1.50;1.00;;;;;;;;;;5031050;28;20084;-69
2023/04/24 12:48:05;;;;;;;3.10;1.02;;;;;;;;;;5031394;28;20566;-66
2023/04/24 12:50:31;;;;;;;3.03;1.52;;;;;;;;;;5029468;28;20083;-68
2023/04/24 12:52:56;;;;;;;8.65;1.45;;;;;;;;;;5031171;28;20092;-68
2023/04/24 12:55:21;;;;;;;7.32;1.30;;;;;;;;;;5030528;28;20071;-70
2023/04/24 12:57:46;;;;;;;5.15;1.08;;;;;;;;;;5031103;28;20112;-67
2023/04/24 13:00:12;;;;;;;1.83;0.98;;;;;;;;;;5031045;28;20391;-69
2023/04/24 13:02:38;;;;;;;2.10;1.02;;;;;;;;;;5029586;28;20091;-68
2023/04/24 13:05:03;;;;;;;1.58;0.80;;;;;;;;;;5030373;28;20032;-68
2023/04/24 13:07:28;;;;;;;1.92;0.95;;;;;;;;;;5030728;28;20036;-68
2023/04/24 13:09:54;;;;;;;1.52;1.00;;;;;;;;;;5030550;28;20106;-66
2023/04/24 13:12:20;;;;;;;1.02;0.82;;;;;;;;;;5030962;28;20073;-67
2023/04/24 13:14:45;;;;;;;3.70;1.10;;;;;;;;;;5030711;28;20288;-68
2023/04/24 13:17:11;;;;;;;4.60;1.20;;;;;;;;;;5030816;28;20017;-68
2023/04/24 13:19:37;;;;;;;3.00;1.10;;;;;;;;;;5030515;28;20032;-68
2023/04/24 13:22:03;;;;;;;2.67;0.82;;;;;;;;;;5031008;28;20018;-67
2023/04/24 13:24:28;;;;;;;6.90;1.38;;;;;;;;;;5030095;28;20057;-68
2023/04/24 13:26:53;;;;;;;3.75;1.20;;;;;;;;;;5031041;28;20028;-68
2023/04/24 13:29:19;;;;;;;1.77;1.10;;;;;;;;;;5030929;28;20026;-68
2023/04/24 13:31:44;;;;;;;1.77;0.90;;;;;;;;;;5029457;28;20045;-68
2023/04/24 13:34:09;;;;;;;10.52;1.15;;;;;;;;;;5024902;28;20018;-68
2023/04/24 13:36:35;;;;;;;2.47;1.20;;;;;;;;;;5024416;28;20455;-68
2023/04/24 13:39:00;;;;;;;6.65;1.17;;;;;;;;;;5029696;28;20629;-68
2023/04/24 13:41:25;;;;;;;3.58;1.10;;;;;;;;;;5030050;28;20458;-68
2023/04/24 13:43:50;;;;;;;5.22;1.17;;;;;;;;;;5028689;28;20059;-69
2023/04/24 13:46:16;;;;;;;3.35;1.00;;;;;;;;;;5030823;28;20026;-68
2023/04/24 13:48:41;;;;;;;3.47;1.00;;;;;;;;;;5030435;28;20045;-69
2023/04/24 13:51:06;;;;;;;4.43;1.73;;;;;;;;;;5029726;28;20030;-67
2023/04/24 13:53:32;;;;;;;0.95;0.85;;;;;;;;;;5021660;28;20463;-69
2023/04/24 13:55:57;;;;;;;3.72;1.50;;;;;;;;;;5029847;28;20442;-67
2023/04/24 13:58:23;;;;;;;1.27;0.70;;;;;;;;;;5026194;28;20084;-66
2023/04/24 14:00:48;;;;;;;1.23;0.85;;;;;;;;;;5029093;28;20028;-69
2023/04/24 14:03:13;;;;;;;0.90;0.68;;;;;;;;;;5027139;28;20033;-67
2023/04/24 14:05:38;;;;;;;13.65;1.00;;;;;;;;;;5025550;28;20033;-68
2023/04/24 14:08:04;;;;;;;2.50;0.65;;;;;;;;;;5029136;28;20497;-66
2023/04/24 14:10:29;;;;;;;1.30;0.60;;;;;;;;;;5029235;28;20035;-68
2023/04/24 14:12:54;;;;;;;2.17;0.88;;;;;;;;;;5028904;28;20021;-69
2023/04/24 14:15:20;;;;;;;1.65;0.75;;;;;;;;;;5029219;28;20037;-76
2023/04/24 14:17:45;;;;;;;0.70;0.70;;;;;;;;;;5028417;28;20120;-68
2023/04/24 14:20:11;;;;;;;0.98;0.70;;;;;;;;;;5029547;28;20028;-71
2023/04/24 14:22:37;;;;;;;2.63;0.50;;;;;;;;;;5029777;28;20066;-70
2023/04/24 14:25:03;;;;;;;11.02;1.10;;;;;;;;;;5029139;28;20052;-68
2023/04/24 14:27:28;;;;;;;2.08;0.70;;;;;;;;;;5029353;28;20117;-68
2023/04/24 14:29:53;;;;;;;0.70;0.60;;;;;;;;;;5024821;28;20489;-69
2023/04/24 14:32:19;;;;;;;7.55;0.65;;;;;;;;;;5028006;28;20033;-69
2023/04/24 14:34:44;;;;;;;4.88;0.80;;;;;;;;;;5028742;28;20021;-68